Time;durP1;ratioP1;P1;durP2;ratioP2;P2;SDS_P1;SDS_P2;PMS_P1;PMS_P2;Temp;Humidity;BMP_temperature;BMP_pressure;BME280_temperature;BME280_humidity;BME280_pressure;Samples;Min_cycle;Max_cycle;Signal;HPM_P1;HPM_P2
2021/04/17 00:02:21;;;;;;;12.13;4.75;;;8.70;54.80;;;;;;4989029;28;20482;-63
2021/04/17 00:04:47;;;;;;;14.80;5.25;;;8.70;54.90;;;;;;5004568;28;20041;-62
2021/04/17 00:07:16;;;;;;;18.42;5.35;;;8.60;55.00;;;;;;4989487;28;20039;-62
2021/04/17 00:09:43;;;;;;;14.00;4.90;;;8.60;55.00;;;;;;4984458;28;20039;-62
2021/04/17 00:12:15;;;;;;;13.30;4.35;;;8.50;55.10;;;;;;4972136;28;20026;-62
2021/04/17 00:14:47;;;;;;;11.05;4.90;;;8.50;55.20;;;;;;5001732;28;20488;-62
2021/04/17 00:17:17;;;;;;;13.85;4.90;;;8.50;55.20;;;;;;4988124;28;20026;-62
2021/04/17 00:19:44;;;;;;;9.48;5.40;;;8.40;55.30;;;;;;4981735;28;20039;-63
2021/04/17 00:22:12;;;;;;;11.13;4.70;;;8.40;55.40;;;;;;5002089;28;20039;-62
2021/04/17 00:24:37;;;;;;;14.65;5.22;;;8.30;55.50;;;;;;4983003;28;20035;-62
2021/04/17 00:27:06;;;;;;;13.48;5.38;;;8.30;55.50;;;;;;4985264;28;20046;-62
2021/04/17 00:29:35;;;;;;;13.75;5.10;;;8.30;55.60;;;;;;4988227;28;20041;-62
2021/04/17 00:32:03;;;;;;;21.20;5.75;;;8.30;55.60;;;;;;4998965;28;20032;-62
2021/04/17 00:34:30;;;;;;;11.32;5.03;;;8.20;55.60;;;;;;4993714;28;20047;-62
2021/04/17 00:36:56;;;;;;;12.73;5.05;;;8.20;55.70;;;;;;5011578;28;20092;-63
2021/04/17 00:39:22;;;;;;;9.98;4.72;;;8.20;55.80;;;;;;4994628;28;20052;-62
2021/04/17 00:41:50;;;;;;;17.77;5.38;;;8.20;55.90;;;;;;4981041;28;20492;-62
2021/04/17 00:44:16;;;;;;;13.50;5.38;;;8.20;55.90;;;;;;4996503;28;20042;-63
2021/04/17 00:46:44;;;;;;;17.58;5.43;;;8.20;56.00;;;;;;5001916;28;20066;-62
2021/04/17 00:49:12;;;;;;;15.23;5.57;;;8.20;56.00;;;;;;4993843;28;20134;-63
2021/04/17 00:51:40;;;;;;;17.40;5.28;;;8.20;56.10;;;;;;4985461;28;20073;-62
2021/04/17 00:54:06;;;;;;;15.82;4.97;;;8.10;56.00;;;;;;4981567;28;20038;-62
2021/04/17 00:56:35;;;;;;;12.15;4.65;;;8.10;56.00;;;;;;5035733;22;20075;-66
2021/04/17 00:59:00;;;;;;;14.23;4.55;;;8.10;56.20;;;;;;5036284;28;20044;-65
2021/04/17 01:01:27;;;;;;;14.85;5.07;;;8.10;56.20;;;;;;5035556;28;20045;-66
2021/04/17 01:04:15;;;;;;;20.00;4.75;;;8.10;56.20;;;;;;5037579;28;20702;-66
2021/04/17 01:07:03;;;;;;;14.32;4.72;;;8.10;56.20;;;;;;5031319;28;20037;-66
2021/04/17 01:09:28;;;;;;;13.20;5.07;;;8.10;56.20;;;;;;5032966;28;20037;-66
2021/04/17 01:12:17;;;;;;;13.63;4.82;;;8.10;56.20;;;;;;5035209;28;20402;-65
2021/04/17 01:14:48;;;;;;;16.25;5.03;;;8.00;56.20;;;;;;5020120;28;20051;-66
2021/04/17 01:17:17;;;;;;;12.73;5.43;;;8.00;56.30;;;;;;5031948;28;20029;-65
2021/04/17 01:19:57;;;;;;;14.57;5.60;;;8.00;56.40;;;;;;5024405;28;20029;-66
2021/04/17 01:22:25;;;;;;;10.00;4.35;;;8.00;56.40;;;;;;5029090;28;20135;-65
2021/04/17 01:25:09;;;;;;;14.75;5.20;;;7.90;56.40;;;;;;5034564;28;20036;-65
2021/04/17 01:27:40;;;;;;;8.30;4.88;;;7.90;56.40;;;;;;5030501;28;20521;-65
2021/04/17 01:30:09;;;;;;;12.40;4.53;;;7.90;56.40;;;;;;5034567;28;20453;-66
2021/04/17 01:32:38;;;;;;;17.08;4.78;;;7.90;56.40;;;;;;5032486;28;20044;-65
2021/04/17 01:35:09;;;;;;;10.70;4.25;;;7.90;56.50;;;;;;5032112;28;20025;-65
2021/04/17 01:38:15;;;;;;;9.27;4.45;;;7.80;56.60;;;;;;5033911;28;20040;-65
2021/04/17 01:40:46;;;;;;;11.82;4.97;;;7.80;56.50;;;;;;4989289;28;20037;-66
2021/04/17 01:43:15;;;;;;;17.40;5.05;;;7.80;56.60;;;;;;5030680;28;20040;-65
2021/04/17 01:45:44;;;;;;;11.98;5.20;;;7.80;56.70;;;;;;5034075;28;20033;-65
2021/04/17 01:48:12;;;;;;;14.07;4.75;;;7.80;56.80;;;;;;5031562;28;20040;-66
2021/04/17 01:50:40;;;;;;;11.63;4.68;;;7.80;56.80;;;;;;5029249;28;20091;-65
2021/04/17 01:53:13;;;;;;;14.38;4.95;;;7.80;56.80;;;;;;5031095;28;20095;-65
2021/04/17 01:55:42;;;;;;;8.38;5.18;;;7.80;56.80;;;;;;5034841;28;20037;-65
2021/04/17 01:58:11;;;;;;;16.80;4.60;;;7.80;56.90;;;;;;5033586;28;20041;-66
2021/04/17 02:00:37;;;;;;;16.20;4.95;;;7.80;56.90;;;;;;5027461;28;20045;-66
2021/04/17 02:03:06;;;;;;;15.80;5.20;;;7.80;56.90;;;;;;5032486;28;20068;-65
2021/04/17 02:05:33;;;;;;;17.38;5.60;;;7.80;57.00;;;;;;5027677;28;20118;-66
2021/04/17 02:08:01;;;;;;;10.95;5.38;;;7.80;57.10;;;;;;5030464;28;20033;-66
2021/04/17 02:10:29;;;;;;;15.45;5.32;;;7.80;57.00;;;;;;5031519;28;20044;-65
2021/04/17 02:12:57;;;;;;;14.73;6.03;;;7.70;57.20;;;;;;5035649;28;20034;-65
2021/04/17 02:15:23;;;;;;;12.05;6.05;;;7.80;57.30;;;;;;5033702;28;20037;-65
2021/04/17 02:18:00;;;;;;;17.75;6.35;;;7.80;57.40;;;;;;5031709;28;20041;-66
2021/04/17 02:20:42;;;;;;;18.13;6.30;;;7.80;57.40;;;;;;5037395;28;20037;-66
2021/04/17 02:23:12;;;;;;;22.27;5.75;;;7.70;57.30;;;;;;5033507;28;20124;-64
2021/04/17 02:25:38;;;;;;;15.95;6.30;;;7.70;57.40;;;;;;5029859;28;20491;-66
2021/04/17 02:28:09;;;;;;;11.38;5.85;;;7.70;57.40;;;;;;5028337;28;20494;-65
2021/04/17 02:30:42;;;;;;;14.20;6.20;;;7.70;57.40;;;;;;5025745;28;20628;-65
2021/04/17 02:33:07;;;;;;;19.20;5.60;;;7.70;57.40;;;;;;5033308;28;20120;-65
2021/04/17 02:35:33;;;;;;;16.90;6.80;;;7.70;57.40;;;;;;5044961;28;20037;-65
2021/04/17 02:38:01;;;;;;;13.07;5.95;;;7.60;57.30;;;;;;5035150;28;20388;-65
2021/04/17 02:40:29;;;;;;;25.25;7.07;;;7.60;57.40;;;;;;5036051;28;20041;-65
2021/04/17 02:42:55;;;;;;;18.30;7.03;;;7.60;57.40;;;;;;5033901;28;20051;-66
2021/04/17 02:45:23;;;;;;;22.45;6.57;;;7.50;57.40;;;;;;5031102;28;20440;-65
2021/04/17 02:47:48;;;;;;;16.77;6.38;;;7.50;57.50;;;;;;5049460;28;20492;-65
2021/04/17 02:50:19;;;;;;;17.20;7.03;;;7.50;57.50;;;;;;5041243;28;20107;-65
2021/04/17 02:52:44;;;;;;;13.55;6.75;;;7.50;57.60;;;;;;5038926;28;20476;-66
2021/04/17 02:55:10;;;;;;;20.42;6.63;;;7.50;57.60;;;;;;5035407;28;20037;-66
2021/04/17 02:57:36;;;;;;;20.35;6.97;;;7.50;57.70;;;;;;5028075;28;20033;-65
2021/04/17 03:00:08;;;;;;;21.80;7.15;;;7.50;57.70;;;;;;5027518;28;20070;-65
2021/04/17 03:02:35;;;;;;;17.67;7.25;;;7.40;57.70;;;;;;5032305;28;20212;-66
2021/04/17 03:05:01;;;;;;;15.93;6.72;;;7.50;57.70;;;;;;5035744;28;20067;-65
2021/04/17 03:07:27;;;;;;;15.63;6.53;;;7.40;57.60;;;;;;5041069;28;20120;-65
2021/04/17 03:09:52;;;;;;;19.08;7.05;;;7.40;57.70;;;;;;5033460;28;20033;-65
2021/04/17 03:12:20;;;;;;;22.40;7.70;;;7.40;57.80;;;;;;5052199;28;20038;-65
2021/04/17 03:14:46;;;;;;;25.08;8.20;;;7.40;58.00;;;;;;5034156;28;20430;-65
2021/04/17 03:17:14;;;;;;;20.77;7.45;;;7.40;58.10;;;;;;5039174;28;20499;-65
2021/04/17 03:19:44;;;;;;;20.80;8.20;;;7.40;58.20;;;;;;5035756;28;20025;-64
2021/04/17 03:22:15;;;;;;;20.48;8.30;;;7.40;58.40;;;;;;5039116;28;20159;-64
2021/04/17 03:24:43;;;;;;;24.35;8.00;;;7.40;58.40;;;;;;5039910;28;20048;-64
2021/04/17 03:27:11;;;;;;;21.88;7.82;;;7.40;58.30;;;;;;5035635;28;20152;-64
2021/04/17 03:29:39;;;;;;;18.98;8.35;;;7.40;58.40;;;;;;5034650;28;20052;-65
2021/04/17 03:32:05;;;;;;;20.52;7.78;;;7.40;58.40;;;;;;5025896;28;20037;-65
2021/04/17 03:34:30;;;;;;;21.98;8.10;;;7.40;58.40;;;;;;5025626;28;20041;-65
2021/04/17 03:37:00;;;;;;;17.95;7.50;;;7.40;58.30;;;;;;5037885;28;20120;-66
2021/04/17 03:39:29;;;;;;;20.42;7.55;;;7.40;58.40;;;;;;5032769;28;20129;-65
2021/04/17 03:41:56;;;;;;;17.70;7.28;;;7.30;58.30;;;;;;5032562;28;20037;-65
2021/04/17 03:44:25;;;;;;;18.77;7.80;;;7.30;58.30;;;;;;5036267;28;20078;-65
2021/04/17 03:46:50;;;;;;;14.40;7.35;;;7.30;58.30;;;;;;5018306;28;20076;-65
2021/04/17 03:49:18;;;;;;;26.98;8.25;;;7.30;58.30;;;;;;5035111;28;20116;-65
2021/04/17 03:51:44;;;;;;;22.25;8.98;;;7.20;58.20;;;;;;5039599;28;20037;-65
2021/04/17 03:54:10;;;;;;;26.52;10.27;;;7.20;58.10;;;;;;5030861;28;20048;-65
2021/04/17 03:56:37;;;;;;;22.95;9.55;;;7.10;58.00;;;;;;5035797;28;20124;-65
2021/04/17 03:59:07;;;;;;;22.67;10.02;;;7.10;58.00;;;;;;5038936;28;20040;-64
2021/04/17 04:01:33;;;;;;;29.13;10.57;;;7.10;58.10;;;;;;5025794;28;20070;-65
2021/04/17 04:03:59;;;;;;;27.92;11.70;;;7.00;58.10;;;;;;5032519;28;20045;-65
2021/04/17 04:06:26;;;;;;;26.52;11.75;;;7.00;58.20;;;;;;5038706;28;20052;-66
2021/04/17 04:08:51;;;;;;;28.90;11.20;;;6.90;58.20;;;;;;5035308;28;20036;-65
2021/04/17 04:11:19;;;;;;;25.60;9.98;;;6.90;58.20;;;;;;5036504;28;20045;-65
2021/04/17 04:13:45;;;;;;;25.67;10.15;;;6.90;58.30;;;;;;5035744;28;20124;-64
2021/04/17 04:16:11;;;;;;;24.90;9.98;;;6.90;58.20;;;;;;5037181;28;20123;-65
2021/04/17 04:18:36;;;;;;;24.88;10.50;;;6.80;58.20;;;;;;5033023;28;20041;-65
2021/04/17 04:21:02;;;;;;;25.20;10.88;;;6.80;58.20;;;;;;5028712;28;20045;-65
2021/04/17 04:23:30;;;;;;;30.38;9.88;;;6.80;58.20;;;;;;5023276;28;20953;-65
2021/04/17 04:25:55;;;;;;;27.23;9.95;;;6.80;58.30;;;;;;5039416;28;20198;-65
2021/04/17 04:28:21;;;;;;;25.38;9.80;;;6.70;58.30;;;;;;5024067;28;20506;-65
2021/04/17 04:30:51;;;;;;;24.08;9.73;;;6.70;58.40;;;;;;5023562;28;20251;-65
2021/04/17 04:33:19;;;;;;;27.98;9.20;;;6.70;58.60;;;;;;5029670;28;20056;-66
2021/04/17 04:35:45;;;;;;;22.00;9.65;;;6.70;58.70;;;;;;5027566;28;20188;-65
2021/04/17 04:38:15;;;;;;;23.00;9.45;;;6.70;58.70;;;;;;5028683;28;20491;-65
2021/04/17 04:40:40;;;;;;;25.42;9.32;;;6.80;58.80;;;;;;5032610;28;20052;-65
2021/04/17 04:43:09;;;;;;;16.95;9.05;;;6.70;58.70;;;;;;5047187;28;20037;-66
2021/04/17 04:45:38;;;;;;;31.98;8.80;;;6.80;58.80;;;;;;5038893;28;20295;-66
2021/04/17 04:48:07;;;;;;;22.10;9.23;;;6.80;58.80;;;;;;5034917;28;20135;-65
2021/04/17 04:50:35;;;;;;;18.50;8.50;;;6.80;58.80;;;;;;5041060;28;20571;-65
2021/04/17 04:53:05;;;;;;;28.35;9.68;;;6.80;58.80;;;;;;5042278;28;20036;-65
2021/04/17 04:55:33;;;;;;;27.02;9.40;;;6.70;58.70;;;;;;5035908;28;20040;-65
2021/04/17 04:58:03;;;;;;;32.67;9.93;;;6.80;58.80;;;;;;5038831;28;20399;-66
2021/04/17 05:00:29;;;;;;;28.95;9.55;;;6.80;58.80;;;;;;5038886;28;20095;-65
2021/04/17 05:02:57;;;;;;;27.17;10.13;;;6.70;58.80;;;;;;5037251;28;20434;-65
2021/04/17 05:05:23;;;;;;;29.15;10.48;;;6.80;58.90;;;;;;5030537;28;20041;-65
2021/04/17 05:07:48;;;;;;;33.35;10.63;;;6.80;59.10;;;;;;5037582;28;20090;-65
2021/04/17 05:10:14;;;;;;;23.30;11.27;;;6.80;59.20;;;;;;5040796;28;20548;-65
2021/04/17 05:12:39;;;;;;;28.38;11.50;;;6.90;59.50;;;;;;5035784;28;20037;-66
2021/04/17 05:15:06;;;;;;;31.73;11.73;;;7.00;59.70;;;;;;5027294;28;20029;-65
2021/04/17 05:17:36;;;;;;;32.10;11.93;;;7.10;59.80;;;;;;5030581;28;20779;-64
2021/04/17 05:20:05;;;;;;;30.08;11.75;;;7.30;60.00;;;;;;5034695;28;20037;-65
2021/04/17 05:22:34;;;;;;;31.27;12.80;;;7.40;60.10;;;;;;5039683;28;20036;-65
2021/04/17 05:24:59;;;;;;;29.80;13.25;;;7.60;61.00;;;;;;5035828;28;20029;-66
2021/04/17 05:27:25;;;;;;;47.38;14.52;;;7.70;60.30;;;;;;5032455;28;20509;-65
2021/04/17 05:29:53;;;;;;;36.17;13.75;;;7.80;60.40;;;;;;5041307;28;20029;-66
2021/04/17 05:32:23;;;;;;;39.72;14.20;;;8.00;60.60;;;;;;5040093;28;20499;-65
2021/04/17 05:34:51;;;;;;;35.38;14.35;;;8.10;60.60;;;;;;5030600;28;20078;-65
2021/04/17 05:37:16;;;;;;;41.78;15.15;;;8.20;60.60;;;;;;5036837;28;20036;-65
2021/04/17 05:39:42;;;;;;;40.63;15.38;;;8.40;60.60;;;;;;5041323;28;20033;-66
2021/04/17 05:42:07;;;;;;;37.80;14.82;;;8.50;61.40;;;;;;5041964;28;20068;-65
2021/04/17 05:44:33;;;;;;;43.88;15.10;;;8.60;60.70;;;;;;5038091;28;20044;-65
2021/04/17 05:47:04;;;;;;;40.17;14.63;;;8.70;61.40;;;;;;5044125;28;20433;-65
2021/04/17 05:49:29;;;;;;;33.65;14.60;;;8.80;60.80;;;;;;5037777;28;20044;-65
2021/04/17 05:52:00;;;;;;;45.03;14.60;;;9.00;60.90;;;;;;5038553;28;20037;-65
2021/04/17 05:54:28;;;;;;;47.13;15.13;;;9.10;60.90;;;;;;5038809;28;20075;-65
2021/04/17 05:56:55;;;;;;;38.42;14.65;;;9.20;60.80;;;;;;5041240;28;20489;-65
2021/04/17 05:59:21;;;;;;;28.02;13.88;;;9.30;60.80;;;;;;5029112;28;20384;-65
2021/04/17 06:01:49;;;;;;;42.53;14.20;;;9.40;60.70;;;;;;5032828;28;20079;-66
2021/04/17 06:04:16;;;;;;;37.83;14.23;;;9.50;60.80;;;;;;5042251;28;20029;-65
2021/04/17 06:06:42;;;;;;;30.70;13.25;;;9.60;60.70;;;;;;5041437;28;20710;-67
2021/04/17 06:09:10;;;;;;;36.97;12.73;;;9.70;60.80;;;;;;5035275;28;20558;-65
2021/04/17 06:11:38;;;;;;;34.22;13.05;;;9.80;60.80;;;;;;5042717;28;20040;-65
2021/04/17 06:14:03;;;;;;;29.48;12.15;;;9.90;60.70;;;;;;5036074;28;20087;-65
2021/04/17 06:16:31;;;;;;;31.75;12.45;;;10.00;60.60;;;;;;5037718;28;20037;-66
2021/04/17 06:18:59;;;;;;;36.92;12.63;;;10.00;60.50;;;;;;5033865;28;20148;-65
2021/04/17 06:21:24;;;;;;;26.80;10.80;;;10.10;60.40;;;;;;5035246;28;20037;-66
2021/04/17 06:23:50;;;;;;;35.08;10.75;;;10.20;60.40;;;;;;5033783;28;20486;-65
2021/04/17 06:26:20;;;;;;;29.67;9.88;;;10.20;60.40;;;;;;5037598;28;20502;-65
2021/04/17 06:28:46;;;;;;;23.20;9.80;;;10.30;60.40;;;;;;5036762;28;20254;-66
2021/04/17 06:31:14;;;;;;;21.73;9.30;;;10.40;60.40;;;;;;5032731;28;20098;-67
2021/04/17 06:33:41;;;;;;;22.60;8.85;;;10.50;60.40;;;;;;5039580;28;20068;-65
2021/04/17 06:36:07;;;;;;;22.77;8.68;;;10.60;60.30;;;;;;5036460;28;20025;-65
2021/04/17 06:38:35;;;;;;;27.80;8.00;;;10.80;60.10;;;;;;5034155;28;20486;-66
2021/04/17 06:41:07;;;;;;;18.73;8.18;;;10.90;59.90;;;;;;5034349;28;20033;-65
2021/04/17 06:43:35;;;;;;;21.45;8.18;;;10.90;59.70;;;;;;5031974;28;20064;-66
2021/04/17 06:46:02;;;;;;;20.42;7.93;;;11.00;59.70;;;;;;5051731;28;20111;-66
2021/04/17 06:48:28;;;;;;;23.75;7.70;;;11.10;59.50;;;;;;5042172;28;20410;-66
2021/04/17 06:50:54;;;;;;;20.38;7.70;;;11.20;59.30;;;;;;5031973;28;20033;-65
2021/04/17 06:53:21;;;;;;;21.10;6.45;;;11.20;59.10;;;;;;5036095;28;20051;-65
2021/04/17 06:55:51;;;;;;;17.55;6.43;;;11.30;58.90;;;;;;5039633;28;20521;-65
2021/04/17 06:58:19;;;;;;;16.73;6.95;;;11.30;58.70;;;;;;5046565;22;20057;-65
2021/04/17 07:00:47;;;;;;;16.42;7.00;;;11.40;58.60;;;;;;4994337;28;20040;-65
2021/04/17 07:03:15;;;;;;;18.67;7.47;;;11.50;58.60;;;;;;4997262;28;20117;-65
2021/04/17 07:05:40;;;;;;;15.43;6.45;;;11.60;58.60;;;;;;4999054;28;20125;-64
2021/04/17 07:08:06;;;;;;;19.67;6.45;;;11.70;58.70;;;;;;4986990;28;20403;-64
2021/04/17 07:10:37;;;;;;;14.48;5.97;;;12.00;58.90;;;;;;4982899;28;20837;-65
2021/04/17 07:13:25;;;;;;;12.82;5.45;;;12.40;58.60;;;;;;4981486;28;20046;-64
2021/04/17 07:16:03;;;;;;;14.15;5.32;;;12.70;57.60;;;;;;4975697;28;20124;-65
2021/04/17 07:18:31;;;;;;;9.50;5.35;;;12.80;56.70;;;;;;4982081;28;20035;-65
2021/04/17 07:21:19;;;;;;;22.13;5.85;;;12.80;55.90;;;;;;4983353;28;20039;-65
2021/04/17 07:23:51;;;;;;;14.43;4.95;;;12.80;55.60;;;;;;4986475;28;20057;-65
2021/04/17 07:26:20;;;;;;;11.63;4.95;;;12.70;55.20;;;;;;4983162;28;20039;-65
2021/04/17 07:29:00;;;;;;;14.25;5.55;;;12.70;54.90;;;;;;4999411;28;20093;-64
2021/04/17 07:31:27;;;;;;;12.00;4.60;;;12.70;54.90;;;;;;4986239;28;20054;-64
2021/04/17 07:33:54;;;;;;;9.85;3.97;;;12.80;55.00;;;;;;4981767;28;20103;-65
2021/04/17 07:36:20;;;;;;;11.75;4.25;;;12.80;54.70;;;;;;4986728;28;20042;-65
2021/04/17 07:38:49;;;;;;;8.10;3.92;;;12.90;54.30;;;;;;4984877;28;20057;-65
2021/04/17 07:41:20;;;;;;;10.43;3.90;;;13.00;54.10;;;;;;4989966;28;20048;-65
2021/04/17 07:43:52;;;;;;;7.53;3.95;;;13.10;53.80;;;;;;4981751;28;20041;-64
2021/04/17 07:46:30;;;;;;;11.65;4.13;;;13.10;53.50;;;;;;4979080;28;20404;-64
2021/04/17 07:49:18;;;;;;;9.68;3.63;;;13.20;53.20;;;;;;4982310;28;20473;-65
2021/04/17 07:52:15;;;;;;;11.80;3.90;;;13.20;52.90;;;;;;4982424;28;20056;-65
2021/04/17 07:55:01;;;;;;;11.93;3.47;;;13.40;53.10;;;;;;4967308;28;20042;-65
2021/04/17 07:57:33;;;;;;;11.90;4.00;;;13.50;52.60;;;;;;4978250;28;20069;-64
2021/04/17 08:00:00;;;;;;;9.27;3.58;;;13.70;52.00;;;;;;4982774;28;20038;-65
2021/04/17 08:02:26;;;;;;;9.00;3.70;;;13.80;51.80;;;;;;4986696;28;20093;-64
2021/04/17 08:04:53;;;;;;;10.90;4.15;;;14.00;51.60;;;;;;4983226;28;20034;-65
2021/04/17 08:07:22;;;;;;;13.27;4.07;;;14.50;52.60;;;;;;4982274;28;20058;-65
2021/04/17 08:09:48;;;;;;;12.43;3.90;;;15.70;51.90;;;;;;4981149;28;20120;-64
2021/04/17 08:12:17;;;;;;;8.93;3.38;;;17.10;50.30;;;;;;4975857;28;20572;-65
2021/04/17 08:14:43;;;;;;;6.18;3.15;;;18.70;46.60;;;;;;4985490;28;20047;-65
2021/04/17 08:17:10;;;;;;;8.43;3.80;;;19.50;42.80;;;;;;4965871;28;20749;-65
2021/04/17 08:19:38;;;;;;;8.70;3.28;;;19.60;41.20;;;;;;4981428;28;20883;-64
2021/04/17 08:22:06;;;;;;;9.77;3.35;;;19.40;40.50;;;;;;4982684;28;20113;-64
2021/04/17 08:24:37;;;;;;;7.85;3.28;;;19.10;40.00;;;;;;4979217;28;20555;-64
2021/04/17 08:27:10;;;;;;;11.02;3.40;;;18.60;40.00;;;;;;4978420;28;20116;-65
2021/04/17 08:29:52;;;;;;;10.52;3.40;;;18.20;40.30;;;;;;4982742;28;20112;-64
2021/04/17 08:32:38;;;;;;;6.75;3.42;;;18.00;40.70;;;;;;4976750;28;20049;-64
2021/04/17 08:35:24;;;;;;;6.22;2.60;;;18.10;41.20;;;;;;4991878;28;20124;-65
2021/04/17 08:37:50;;;;;;;7.72;2.97;;;18.20;40.60;;;;;;4984825;28;20092;-64
2021/04/17 08:40:35;;;;;;;8.80;3.10;;;18.10;39.70;;;;;;4979954;28;20042;-64
2021/04/17 08:43:13;;;;;;;8.43;2.92;;;17.80;39.80;;;;;;4978787;28;20061;-65
2021/04/17 08:46:00;;;;;;;7.30;3.15;;;17.50;40.80;;;;;;4979264;28;20045;-65
2021/04/17 08:48:48;;;;;;;8.27;3.20;;;17.20;40.60;;;;;;4971171;28;20602;-65
2021/04/17 08:51:25;;;;;;;9.27;3.10;;;17.10;41.00;;;;;;4969139;28;20527;-64
2021/04/17 08:54:11;;;;;;;7.35;2.75;;;17.10;41.40;;;;;;4963688;28;20181;-65
2021/04/17 08:57:00;;;;;;;10.48;3.15;;;17.20;41.30;;;;;;4973691;28;20058;-65
2021/04/17 08:59:36;;;;;;;8.13;3.25;;;17.40;41.10;;;;;;4992032;28;20050;-65
2021/04/17 09:02:11;;;;;;;5.55;2.83;;;17.40;40.60;;;;;;4974454;28;20108;-64
2021/04/17 09:04:59;;;;;;;7.50;3.05;;;17.40;40.40;;;;;;4971008;28;20046;-65
2021/04/17 09:07:27;;;;;;;13.35;3.15;;;17.20;40.40;;;;;;4971418;28;20483;-65
2021/04/17 09:09:53;;;;;;;6.90;2.60;;;17.10;40.60;;;;;;4973323;28;20045;-65
2021/04/17 09:12:21;;;;;;;9.55;3.15;;;17.10;40.80;;;;;;4968662;28;20069;-65
2021/04/17 09:14:52;;;;;;;9.35;2.72;;;17.10;40.90;;;;;;4961262;28;20111;-64
2021/04/17 09:17:41;;;;;;;8.07;2.85;;;17.00;40.50;;;;;;4964463;28;20042;-64
2021/04/17 09:20:33;;;;;;;8.55;2.70;;;17.00;40.60;;;;;;4971181;28;20071;-65
2021/04/17 09:22:58;;;;;;;9.55;3.25;;;16.90;40.60;;;;;;4965407;28;20035;-64
2021/04/17 09:25:39;;;;;;;9.48;2.63;;;16.80;40.80;;;;;;4966607;28;20037;-64
2021/04/17 09:28:07;;;;;;;12.50;2.67;;;16.80;41.10;;;;;;4971445;28;20046;-65
2021/04/17 09:30:33;;;;;;;12.32;2.75;;;16.90;40.90;;;;;;4968275;28;20058;-64
2021/04/17 09:32:59;;;;;;;5.57;2.50;;;16.90;40.70;;;;;;4963702;28;20129;-65
2021/04/17 09:35:29;;;;;;;7.85;2.92;;;17.10;40.50;;;;;;4961346;28;20039;-65
2021/04/17 09:38:00;;;;;;;10.55;2.75;;;17.30;40.00;;;;;;4969092;28;20034;-65
2021/04/17 09:40:33;;;;;;;7.55;2.78;;;17.40;39.50;;;;;;4966428;28;20088;-65
2021/04/17 09:43:02;;;;;;;7.63;2.60;;;17.40;39.00;;;;;;4967700;28;20540;-65
2021/04/17 09:45:37;;;;;;;9.45;2.30;;;17.20;38.90;;;;;;4968400;28;20050;-65
2021/04/17 09:48:09;;;;;;;6.70;2.35;;;17.10;39.10;;;;;;4981699;28;20042;-65
2021/04/17 09:50:36;;;;;;;9.35;2.42;;;17.10;39.20;;;;;;4980883;28;20046;-63
2021/04/17 09:53:13;;;;;;;7.93;2.20;;;17.10;39.50;;;;;;4966997;28;20042;-65
2021/04/17 09:56:04;;;;;;;4.93;1.75;;;17.10;39.60;;;;;;4967110;28;20037;-65
2021/04/17 09:58:36;;;;;;;16.25;2.65;;;17.20;39.30;;;;;;4980966;28;20267;-65
2021/04/17 10:01:10;;;;;;;9.65;2.97;;;17.20;39.40;;;;;;4980548;28;20485;-64
2021/04/17 10:03:40;;;;;;;8.82;2.53;;;17.20;39.60;;;;;;4979673;28;20038;-65
2021/04/17 10:06:26;;;;;;;8.63;2.60;;;17.10;39.50;;;;;;4966792;28;20045;-64
2021/04/17 10:08:53;;;;;;;9.98;2.85;;;17.00;39.70;;;;;;4955677;28;20037;-64
2021/04/17 10:11:30;;;;;;;7.53;2.63;;;17.00;40.00;;;;;;4965524;28;20060;-64
2021/04/17 10:14:00;;;;;;;7.13;2.75;;;17.00;40.00;;;;;;4963684;28;20100;-64
2021/04/17 10:16:33;;;;;;;8.88;3.03;;;17.20;40.40;;;;;;4968857;28;20048;-64
2021/04/17 10:19:03;;;;;;;11.80;3.03;;;17.70;40.30;;;;;;4967048;28;20752;-65
2021/04/17 10:21:32;;;;;;;9.07;2.72;;;18.50;39.40;;;;;;4971378;28;20034;-65
2021/04/17 10:24:33;;;;;;;8.20;2.53;;;19.40;38.30;;;;;;4970979;28;20046;-65
2021/04/17 10:27:23;;;;;;;12.40;2.80;;;20.00;37.00;;;;;;4966551;28;20327;-64
2021/04/17 10:29:53;;;;;;;8.20;2.10;;;20.10;35.70;;;;;;4967783;28;20374;-65
2021/04/17 10:32:25;;;;;;;9.82;2.40;;;20.00;35.80;;;;;;4973165;28;20078;-65
2021/04/17 10:35:11;;;;;;;5.65;2.25;;;20.00;35.40;;;;;;4959919;28;20049;-65
2021/04/17 10:37:44;;;;;;;8.23;2.55;;;20.20;35.40;;;;;;4968894;28;20069;-65
2021/04/17 10:40:15;;;;;;;13.38;2.58;;;20.70;34.90;;;;;;4966458;28;21929;-65
2021/04/17 10:42:46;;;;;;;8.32;2.38;;;20.90;34.40;;;;;;4970948;28;20564;-65
2021/04/17 10:45:19;;;;;;;6.80;2.63;;;21.00;33.70;;;;;;4968070;28;20089;-64
2021/04/17 10:47:58;;;;;;;5.38;2.67;;;21.00;33.20;;;;;;4965708;28;20438;-64
2021/04/17 10:50:25;;;;;;;9.32;2.35;;;20.90;32.60;;;;;;4964060;28;20046;-64
2021/04/17 10:53:02;;;;;;;7.45;2.00;;;20.70;33.40;;;;;;4964851;28;20038;-65
2021/04/17 10:55:44;;;;;;;9.70;2.38;;;20.60;33.40;;;;;;4967273;28;20046;-64
2021/04/17 10:58:41;;;;;;;4.53;2.03;;;20.60;32.60;;;;;;4988163;28;20512;-66
2021/04/17 11:01:18;;;;;;;4.80;1.85;;;20.50;33.00;;;;;;4964573;28;20046;-65
2021/04/17 11:03:51;;;;;;;8.68;1.92;;;20.60;33.00;;;;;;4963296;28;20038;-64
2021/04/17 11:06:23;;;;;;;8.00;1.88;;;20.70;32.60;;;;;;4974902;28;20089;-64
2021/04/17 11:09:05;;;;;;;5.82;1.90;;;20.60;32.70;;;;;;4964501;28;20042;-64
2021/04/17 11:11:33;;;;;;;7.65;2.60;;;20.60;32.70;;;;;;4988518;28;20129;-65
2021/04/17 11:14:01;;;;;;;6.90;1.63;;;20.80;32.70;;;;;;4989030;28;20460;-65
2021/04/17 11:16:42;;;;;;;5.07;2.20;;;21.40;31.20;;;;;;4975415;28;20108;-65
2021/04/17 11:19:34;;;;;;;5.65;1.92;;;21.70;30.20;;;;;;4956060;28;20049;-65
2021/04/17 11:22:15;;;;;;;4.32;1.70;;;21.70;29.80;;;;;;4964519;28;20129;-66
2021/04/17 11:25:04;;;;;;;4.40;1.80;;;21.40;29.50;;;;;;4970476;28;20461;-65
2021/04/17 11:27:31;;;;;;;6.70;1.75;;;21.30;29.70;;;;;;4968850;28;20108;-65
2021/04/17 11:29:57;;;;;;;3.65;1.70;;;21.20;29.80;;;;;;4985347;28;20065;-65
2021/04/17 11:32:26;;;;;;;8.32;1.67;;;21.10;29.70;;;;;;4970618;28;20612;-65
2021/04/17 11:34:52;;;;;;;3.65;1.45;;;20.90;29.40;;;;;;4987310;28;20057;-65
2021/04/17 11:37:18;;;;;;;4.13;1.42;;;20.80;30.20;;;;;;4986569;28;20126;-65
2021/04/17 11:39:44;;;;;;;8.93;2.10;;;21.00;29.60;;;;;;4967806;28;20254;-65
2021/04/17 11:42:16;;;;;;;4.32;1.70;;;21.30;29.10;;;;;;4964910;28;20808;-65
2021/04/17 11:44:45;;;;;;;2.20;1.30;;;21.20;28.70;;;;;;4986352;28;20069;-64
2021/04/17 11:47:13;;;;;;;4.65;1.63;;;21.20;28.50;;;;;;4972911;28;20156;-66
2021/04/17 11:49:41;;;;;;;8.48;1.70;;;21.20;28.10;;;;;;4973072;28;20229;-65
2021/04/17 11:52:07;;;;;;;5.90;1.33;;;21.30;28.50;;;;;;4974938;28;20420;-65
2021/04/17 11:54:32;;;;;;;4.82;1.73;;;21.40;28.50;;;;;;4974724;28;20043;-65
2021/04/17 11:56:58;;;;;;;4.05;1.40;;;21.40;28.30;;;;;;4970797;28;20511;-64
2021/04/17 11:59:27;;;;;;;5.68;1.42;;;21.40;28.10;;;;;;4973031;28;20620;-65
2021/04/17 12:01:56;;;;;;;4.82;1.50;;;21.40;27.00;;;;;;4972543;28;20046;-65
2021/04/17 12:04:23;;;;;;;4.10;1.30;;;21.30;27.00;;;;;;4988673;28;20073;-65
2021/04/17 12:06:52;;;;;;;4.97;1.40;;;21.40;27.00;;;;;;4971645;28;20034;-65
2021/04/17 12:09:18;;;;;;;6.40;1.20;;;21.50;27.10;;;;;;4965235;28;20052;-65
2021/04/17 12:11:46;;;;;;;5.15;1.63;;;21.50;27.10;;;;;;4966946;28;20129;-66
2021/04/17 12:14:14;;;;;;;4.47;1.65;;;21.50;27.50;;;;;;4972882;28;20045;-65
2021/04/17 12:16:40;;;;;;;5.10;1.35;;;21.50;26.80;;;;;;4970045;28;20111;-65
2021/04/17 12:19:06;;;;;;;2.00;1.10;;;21.50;26.70;;;;;;4970461;28;20042;-66
2021/04/17 12:21:34;;;;;;;2.63;0.90;;;21.50;26.30;;;;;;4971305;28;20040;-64
2021/04/17 12:23:59;;;;;;;2.33;1.10;;;21.60;25.80;;;;;;4964122;28;20069;-65
2021/04/17 12:26:27;;;;;;;2.63;1.30;;;21.70;25.60;;;;;;4975034;28;20449;-66
2021/04/17 12:28:55;;;;;;;3.40;1.33;;;21.60;25.80;;;;;;4973095;28;20041;-65
2021/04/17 12:31:23;;;;;;;2.35;1.27;;;21.60;26.00;;;;;;4975018;28;20071;-65
2021/04/17 12:33:49;;;;;;;2.08;1.35;;;21.60;26.40;;;;;;4965867;28;20520;-66
2021/04/17 12:36:17;;;;;;;5.32;1.80;;;21.70;26.30;;;;;;4972992;28;20054;-64
2021/04/17 12:38:44;;;;;;;2.80;1.10;;;21.70;25.90;;;;;;4973064;28;20034;-65
2021/04/17 12:41:10;;;;;;;4.03;1.55;;;21.80;26.20;;;;;;4970235;28;20884;-65
2021/04/17 12:43:37;;;;;;;3.03;1.13;;;21.70;26.70;;;;;;4966788;28;20125;-65
2021/04/17 12:46:08;;;;;;;2.40;1.00;;;21.50;25.90;;;;;;4972885;28;20212;-65
2021/04/17 12:48:33;;;;;;;2.58;1.20;;;21.40;25.80;;;;;;4975672;28;20038;-65
2021/04/17 12:51:01;;;;;;;1.30;0.90;;;21.30;25.60;;;;;;4984796;28;20348;-65
2021/04/17 12:53:31;;;;;;;2.70;1.10;;;21.30;25.40;;;;;;4986385;28;20436;-65
2021/04/17 12:55:59;;;;;;;2.35;1.00;;;21.30;25.80;;;;;;4971916;28;20353;-65
2021/04/17 12:58:27;;;;;;;3.63;1.50;;;21.30;25.70;;;;;;4974158;28;20128;-65
2021/04/17 13:00:55;;;;;;;2.40;1.10;;;21.40;25.60;;;;;;4981923;28;20292;-65